sensor_id;sensor_type;location;lat;lon;timestamp;temperature;humidity
7598;DHT22;3840;59.32098800;18.06423600;2024-01-15T00:01:29;-3.50;99.90
7598;DHT22;3840;59.32098800;18.06423600;2024-01-15T00:03:59;-3.50;99.90
7598;DHT22;3840;59.32098800;18.06423600;2024-01-15T00:06:26;-3.60;99.90
7598;DHT22;3840;59.32098800;18.06423600;2024-01-15T00:08:53;-3.60;99.90
7598;DHT22;3840;59.32098800;18.06423600;2024-01-15T00:11:19;-3.60;99.90
7598;DHT22;3840;59.32098800;18.06423600;2024-01-15T00:13:45;-3.70;99.90
7598;DHT22;3840;59.32098800;18.06423600;2024-01-15T00:16:11;-3.60;99.90
7598;DHT22;3840;59.32098800;18.06423600;2024-01-15T00:18:37;-3.70;99.90
7598;DHT22;3840;59.32098800;18.06423600;2024-01-15T00:21:05;-3.70;99.90
7598;DHT22;3840;59.32098800;18.06423600;2024-01-15T00:23:34;-3.70;99.90
7598;DHT22;3840;59.32098800;18.06423600;2024-01-15T00:26:00;-3.70;99.90
7598;DHT22;3840;59.32098800;18.06423600;2024-01-15T00:28:26;-3.70;99.90
7598;DHT22;3840;59.32098800;18.06423600;2024-01-15T00:30:52;-3.70;99.90
7598;DHT22;3840;59.32098800;18.06423600;2024-01-15T00:33:18;-3.70;99.90
7598;DHT22;3840;59.32098800;18.06423600;2024-01-15T00:35:43;-3.70;99.90
7598;DHT22;3840;59.32098800;18.06423600;2024-01-15T00:38:09;-3.70;99.90
7598;DHT22;3840;59.32098800;18.06423600;2024-01-15T00:40:36;-3.70;99.90
7598;DHT22;3840;59.32098800;18.06423600;2024-01-15T00:43:04;-3.70;99.90
7598;DHT22;3840;59.32098800;18.06423600;2024-01-15T00:45:33;-3.70;99.90
7598;DHT22;3840;59.32098800;18.06423600;2024-01-15T00:47:58;-3.70;99.90
7598;DHT22;3840;59.32098800;18.06423600;2024-01-15T00:50:26;-3.40;99.90
7598;DHT22;3840;59.32098800;18.06423600;2024-01-15T00:52:52;-3.70;99.90
7598;DHT22;3840;59.32098800;18.06423600;2024-01-15T00:55:18;-3.70;99.90
7598;DHT22;3840;59.32098800;18.06423600;2024-01-15T00:57:44;-3.70;99.90
7598;DHT22;3840;59.32098800;18.06423600;2024-01-15T01:00:11;-3.80;99.90
7598;DHT22;3840;59.32098800;18.06423600;2024-01-15T01:02:39;-3.90;99.90
7598;DHT22;3840;59.32098800;18.06423600;2024-01-15T01:05:05;-3.80;99.90
7598;DHT22;3840;59.32098800;18.06423600;2024-01-15T01:07:31;-3.70;99.90
7598;DHT22;3840;59.32098800;18.06423600;2024-01-15T01:09:56;-3.70;99.90
7598;DHT22;3840;59.32098800;18.06423600;2024-01-15T01:12:23;-3.80;99.90
7598;DHT22;3840;59.32098800;18.06423600;2024-01-15T01:14:49;-3.80;99.90
7598;DHT22;3840;59.32098800;18.06423600;2024-01-15T01:17:14;-3.80;99.90
7598;DHT22;3840;59.32098800;18.06423600;2024-01-15T01:19:41;-3.90;99.90
7598;DHT22;3840;59.32098800;18.06423600;2024-01-15T01:22:06;-3.90;99.90
7598;DHT22;3840;59.32098800;18.06423600;2024-01-15T01:24:33;-3.90;99.90
7598;DHT22;3840;59.32098800;18.06423600;2024-01-15T01:26:59;-3.70;99.90
7598;DHT22;3840;59.32098800;18.06423600;2024-01-15T01:29:26;-3.90;99.90
7598;DHT22;3840;59.32098800;18.06423600;2024-01-15T01:31:52;-3.90;99.90
7598;DHT22;3840;59.32098800;18.06423600;2024-01-15T01:34:18;-4.00;99.90
7598;DHT22;3840;59.32098800;18.06423600;2024-01-15T01:36:43;-3.90;99.90
7598;DHT22;3840;59.32098800;18.06423600;2024-01-15T01:39:09;-4.00;99.90
7598;DHT22;3840;59.32098800;18.06423600;2024-01-15T01:41:35;-4.00;99.90
7598;DHT22;3840;59.32098800;18.06423600;2024-01-15T01:44:01;-4.00;99.90
7598;DHT22;3840;59.32098800;18.06423600;2024-01-15T01:46:28;-4.00;99.90
7598;DHT22;3840;59.32098800;18.06423600;2024-01-15T01:48:55;-4.00;99.90
7598;DHT22;3840;59.32098800;18.06423600;2024-01-15T01:51:24;-4.00;99.90
7598;DHT22;3840;59.32098800;18.06423600;2024-01-15T01:53:50;-4.00;99.90
7598;DHT22;3840;59.32098800;18.06423600;2024-01-15T01:56:17;-4.00;99.90
7598;DHT22;3840;59.32098800;18.06423600;2024-01-15T01:58:44;-4.10;99.90
7598;DHT22;3840;59.32098800;18.06423600;2024-01-15T02:01:15;-4.20;99.90
7598;DHT22;3840;59.32098800;18.06423600;2024-01-15T02:03:41;-4.20;99.90
7598;DHT22;3840;59.32098800;18.06423600;2024-01-15T02:06:07;-4.10;99.90
7598;DHT22;3840;59.32098800;18.06423600;2024-01-15T02:08:34;-4.20;99.90
7598;DHT22;3840;59.32098800;18.06423600;2024-01-15T02:11:00;-4.20;99.90
7598;DHT22;3840;59.32098800;18.06423600;2024-01-15T02:13:26;-4.00;99.90
7598;DHT22;3840;59.32098800;18.06423600;2024-01-15T02:15:51;-4.20;99.90
7598;DHT22;3840;59.32098800;18.06423600;2024-01-15T02:18:17;-4.20;99.90
7598;DHT22;3840;59.32098800;18.06423600;2024-01-15T02:20:43;-4.10;99.90
7598;DHT22;3840;59.32098800;18.06423600;2024-01-15T02:23:13;-3.80;99.90
7598;DHT22;3840;59.32098800;18.06423600;2024-01-15T02:25:42;-4.30;99.90
7598;DHT22;3840;59.32098800;18.06423600;2024-01-15T02:28:11;-4.30;99.90
7598;DHT22;3840;59.32098800;18.06423600;2024-01-15T02:30:37;-4.30;99.90
7598;DHT22;3840;59.32098800;18.06423600;2024-01-15T02:33:07;-4.30;99.90
7598;DHT22;3840;59.32098800;18.06423600;2024-01-15T02:35:35;-4.30;99.90
7598;DHT22;3840;59.32098800;18.06423600;2024-01-15T02:38:07;-4.30;99.90
7598;DHT22;3840;59.32098800;18.06423600;2024-01-15T02:40:33;-4.30;99.90
7598;DHT22;3840;59.32098800;18.06423600;2024-01-15T02:42:59;-4.20;99.90
7598;DHT22;3840;59.32098800;18.06423600;2024-01-15T02:45:24;-4.30;99.90
7598;DHT22;3840;59.32098800;18.06423600;2024-01-15T02:47:50;-4.40;99.90
7598;DHT22;3840;59.32098800;18.06423600;2024-01-15T02:50:16;-4.40;99.90
7598;DHT22;3840;59.32098800;18.06423600;2024-01-15T02:52:44;-4.40;99.90
7598;DHT22;3840;59.32098800;18.06423600;2024-01-15T02:55:10;-4.40;99.90
7598;DHT22;3840;59.32098800;18.06423600;2024-01-15T02:57:36;-4.10;99.90
7598;DHT22;3840;59.32098800;18.06423600;2024-01-15T03:00:02;-4.30;99.90
7598;DHT22;3840;59.32098800;18.06423600;2024-01-15T03:02:29;-4.40;99.90
7598;DHT22;3840;59.32098800;18.06423600;2024-01-15T03:04:57;-4.50;99.90
7598;DHT22;3840;59.32098800;18.06423600;2024-01-15T03:07:24;-4.40;99.90
7598;DHT22;3840;59.32098800;18.06423600;2024-01-15T03:09:49;-4.40;99.90
7598;DHT22;3840;59.32098800;18.06423600;2024-01-15T03:12:15;-4.50;99.90
7598;DHT22;3840;59.32098800;18.06423600;2024-01-15T03:14:43;-4.50;99.90
7598;DHT22;3840;59.32098800;18.06423600;2024-01-15T03:17:09;-4.60;99.90
7598;DHT22;3840;59.32098800;18.06423600;2024-01-15T03:19:36;-4.60;99.90
7598;DHT22;3840;59.32098800;18.06423600;2024-01-15T03:22:01;-4.50;99.90
7598;DHT22;3840;59.32098800;18.06423600;2024-01-15T03:24:29;-4.60;99.90
7598;DHT22;3840;59.32098800;18.06423600;2024-01-15T03:26:55;-4.50;99.90
7598;DHT22;3840;59.32098800;18.06423600;2024-01-15T03:29:21;-4.50;99.90
7598;DHT22;3840;59.32098800;18.06423600;2024-01-15T03:31:47;-4.60;99.90
7598;DHT22;3840;59.32098800;18.06423600;2024-01-15T03:34:13;-4.60;99.90
7598;DHT22;3840;59.32098800;18.06423600;2024-01-15T03:36:39;-4.60;99.90
7598;DHT22;3840;59.32098800;18.06423600;2024-01-15T03:39:04;-4.60;99.90
7598;DHT22;3840;59.32098800;18.06423600;2024-01-15T03:41:30;-4.60;99.90
7598;DHT22;3840;59.32098800;18.06423600;2024-01-15T03:43:56;-4.60;99.90
7598;DHT22;3840;59.32098800;18.06423600;2024-01-15T03:46:21;-4.50;99.90
7598;DHT22;3840;59.32098800;18.06423600;2024-01-15T03:48:48;-4.30;99.90
7598;DHT22;3840;59.32098800;18.06423600;2024-01-15T03:51:17;-4.40;99.90
7598;DHT22;3840;59.32098800;18.06423600;2024-01-15T03:53:44;-4.50;99.90
7598;DHT22;3840;59.32098800;18.06423600;2024-01-15T03:56:10;-4.50;99.90
7598;DHT22;3840;59.32098800;18.06423600;2024-01-15T03:58:36;-4.50;99.90
7598;DHT22;3840;59.32098800;18.06423600;2024-01-15T04:01:02;-4.60;99.90
7598;DHT22;3840;59.32098800;18.06423600;2024-01-15T04:03:28;-4.60;99.90
7598;DHT22;3840;59.32098800;18.06423600;2024-01-15T04:05:54;-4.60;99.90
7598;DHT22;3840;59.32098800;18.06423600;2024-01-15T04:08:20;-4.60;99.90
7598;DHT22;3840;59.32098800;18.06423600;2024-01-15T04:10:45;-4.50;99.90
7598;DHT22;3840;59.32098800;18.06423600;2024-01-15T04:13:11;-4.60;99.90
7598;DHT22;3840;59.32098800;18.06423600;2024-01-15T04:15:37;-4.60;99.90
7598;DHT22;3840;59.32098800;18.06423600;2024-01-15T04:18:03;-4.60;99.90
7598;DHT22;3840;59.32098800;18.06423600;2024-01-15T04:20:29;-4.60;99.90
7598;DHT22;3840;59.32098800;18.06423600;2024-01-15T04:22:54;-4.60;99.90
7598;DHT22;3840;59.32098800;18.06423600;2024-01-15T04:25:20;-4.60;99.90
7598;DHT22;3840;59.32098800;18.06423600;2024-01-15T04:27:46;-4.60;99.90
7598;DHT22;3840;59.32098800;18.06423600;2024-01-15T04:30:12;-4.60;99.90
7598;DHT22;3840;59.32098800;18.06423600;2024-01-15T04:32:39;-4.60;99.90
7598;DHT22;3840;59.32098800;18.06423600;2024-01-15T04:35:05;-4.70;99.90
7598;DHT22;3840;59.32098800;18.06423600;2024-01-15T04:37:31;-4.70;99.90
7598;DHT22;3840;59.32098800;18.06423600;2024-01-15T04:39:56;-4.70;99.90
7598;DHT22;3840;59.32098800;18.06423600;2024-01-15T04:42:23;-4.80;99.90
7598;DHT22;3840;59.32098800;18.06423600;2024-01-15T04:44:49;-4.80;99.90
7598;DHT22;3840;59.32098800;18.06423600;2024-01-15T04:47:14;-4.90;99.90
7598;DHT22;3840;59.32098800;18.06423600;2024-01-15T04:49:40;-4.70;99.90
7598;DHT22;3840;59.32098800;18.06423600;2024-01-15T04:52:06;-4.60;99.90
7598;DHT22;3840;59.32098800;18.06423600;2024-01-15T04:54:32;-4.90;99.90
7598;DHT22;3840;59.32098800;18.06423600;2024-01-15T04:56:57;-4.80;99.90
7598;DHT22;3840;59.32098800;18.06423600;2024-01-15T04:59:24;-4.80;99.90
7598;DHT22;3840;59.32098800;18.06423600;2024-01-15T05:01:50;-4.80;99.90
7598;DHT22;3840;59.32098800;18.06423600;2024-01-15T05:04:15;-4.20;99.90
7598;DHT22;3840;59.32098800;18.06423600;2024-01-15T05:06:41;-4.80;99.90
7598;DHT22;3840;59.32098800;18.06423600;2024-01-15T05:09:07;-4.80;99.90
7598;DHT22;3840;59.32098800;18.06423600;2024-01-15T05:11:33;-4.80;99.90
7598;DHT22;3840;59.32098800;18.06423600;2024-01-15T05:13:59;-4.80;99.90
7598;DHT22;3840;59.32098800;18.06423600;2024-01-15T05:16:25;-4.80;99.90
7598;DHT22;3840;59.32098800;18.06423600;2024-01-15T05:18:50;-4.80;99.90
7598;DHT22;3840;59.32098800;18.06423600;2024-01-15T05:21:16;-4.80;99.90
7598;DHT22;3840;59.32098800;18.06423600;2024-01-15T05:23:45;-4.80;99.90
7598;DHT22;3840;59.32098800;18.06423600;2024-01-15T05:26:10;-4.80;99.90
7598;DHT22;3840;59.32098800;18.06423600;2024-01-15T05:28:36;-4.80;99.90
7598;DHT22;3840;59.32098800;18.06423600;2024-01-15T05:31:03;-4.80;99.90
7598;DHT22;3840;59.32098800;18.06423600;2024-01-15T05:33:31;-4.90;99.90
7598;DHT22;3840;59.32098800;18.06423600;2024-01-15T05:35:57;-4.70;99.90
7598;DHT22;3840;59.32098800;18.06423600;2024-01-15T05:38:24;-4.90;99.90
7598;DHT22;3840;59.32098800;18.06423600;2024-01-15T05:40:50;-4.90;99.90
7598;DHT22;3840;59.32098800;18.06423600;2024-01-15T05:43:16;-5.10;99.90
7598;DHT22;3840;59.32098800;18.06423600;2024-01-15T05:45:43;-4.90;99.90
7598;DHT22;3840;59.32098800;18.06423600;2024-01-15T05:48:11;-4.90;99.90
7598;DHT22;3840;59.32098800;18.06423600;2024-01-15T05:50:37;-4.90;99.90
7598;DHT22;3840;59.32098800;18.06423600;2024-01-15T05:53:04;-5.00;99.90
7598;DHT22;3840;59.32098800;18.06423600;2024-01-15T05:55:29;-5.00;99.90
7598;DHT22;3840;59.32098800;18.06423600;2024-01-15T05:57:55;-4.90;99.90
7598;DHT22;3840;59.32098800;18.06423600;2024-01-15T06:00:22;-4.90;99.90
7598;DHT22;3840;59.32098800;18.06423600;2024-01-15T06:02:49;-4.90;99.90
7598;DHT22;3840;59.32098800;18.06423600;2024-01-15T06:05:15;-4.90;99.90
7598;DHT22;3840;59.32098800;18.06423600;2024-01-15T06:07:41;-5.00;99.90
7598;DHT22;3840;59.32098800;18.06423600;2024-01-15T06:10:07;-5.00;99.90
7598;DHT22;3840;59.32098800;18.06423600;2024-01-15T06:12:34;-4.90;99.90
7598;DHT22;3840;59.32098800;18.06423600;2024-01-15T06:15:00;-4.90;99.90
7598;DHT22;3840;59.32098800;18.06423600;2024-01-15T06:17:25;-4.90;99.90
7598;DHT22;3840;59.32098800;18.06423600;2024-01-15T06:19:51;-4.90;99.90
7598;DHT22;3840;59.32098800;18.06423600;2024-01-15T06:22:17;-4.90;99.90
7598;DHT22;3840;59.32098800;18.06423600;2024-01-15T06:24:43;-5.00;99.90
7598;DHT22;3840;59.32098800;18.06423600;2024-01-15T06:27:09;-5.00;99.90
7598;DHT22;3840;59.32098800;18.06423600;2024-01-15T06:29:37;-5.00;99.90
7598;DHT22;3840;59.32098800;18.06423600;2024-01-15T06:32:04;-5.10;99.90
7598;DHT22;3840;59.32098800;18.06423600;2024-01-15T06:34:31;-5.10;99.90
7598;DHT22;3840;59.32098800;18.06423600;2024-01-15T06:36:57;-5.20;99.90
7598;DHT22;3840;59.32098800;18.06423600;2024-01-15T06:39:22;-5.20;99.90
7598;DHT22;3840;59.32098800;18.06423600;2024-01-15T06:41:49;-5.10;99.90
7598;DHT22;3840;59.32098800;18.06423600;2024-01-15T06:44:15;-5.20;99.90
7598;DHT22;3840;59.32098800;18.06423600;2024-01-15T06:46:44;-5.20;99.90
7598;DHT22;3840;59.32098800;18.06423600;2024-01-15T06:49:11;-5.10;99.90
7598;DHT22;3840;59.32098800;18.06423600;2024-01-15T06:51:37;-5.20;99.90
7598;DHT22;3840;59.32098800;18.06423600;2024-01-15T06:54:03;-5.10;99.90
7598;DHT22;3840;59.32098800;18.06423600;2024-01-15T06:56:28;-5.10;99.90
7598;DHT22;3840;59.32098800;18.06423600;2024-01-15T06:58:54;-5.10;99.90
7598;DHT22;3840;59.32098800;18.06423600;2024-01-15T07:01:20;-5.20;99.90
7598;DHT22;3840;59.32098800;18.06423600;2024-01-15T07:03:46;-5.10;99.90
7598;DHT22;3840;59.32098800;18.06423600;2024-01-15T07:06:12;-5.10;99.90
7598;DHT22;3840;59.32098800;18.06423600;2024-01-15T07:08:39;-5.10;99.90
7598;DHT22;3840;59.32098800;18.06423600;2024-01-15T07:11:05;-5.10;99.90
7598;DHT22;3840;59.32098800;18.06423600;2024-01-15T07:13:31;-5.10;99.90
7598;DHT22;3840;59.32098800;18.06423600;2024-01-15T07:15:58;-4.90;99.90
7598;DHT22;3840;59.32098800;18.06423600;2024-01-15T07:18:24;-5.20;99.90
7598;DHT22;3840;59.32098800;18.06423600;2024-01-15T07:20:50;-5.20;99.90
7598;DHT22;3840;59.32098800;18.06423600;2024-01-15T07:23:15;-5.20;99.90
7598;DHT22;3840;59.32098800;18.06423600;2024-01-15T07:25:41;-5.20;99.90
7598;DHT22;3840;59.32098800;18.06423600;2024-01-15T07:28:09;-5.20;99.90
7598;DHT22;3840;59.32098800;18.06423600;2024-01-15T07:30:36;-5.20;99.90
7598;DHT22;3840;59.32098800;18.06423600;2024-01-15T07:33:04;-5.30;99.90
7598;DHT22;3840;59.32098800;18.06423600;2024-01-15T07:35:30;-5.30;99.90
7598;DHT22;3840;59.32098800;18.06423600;2024-01-15T07:37:56;-5.20;99.90
7598;DHT22;3840;59.32098800;18.06423600;2024-01-15T07:40:22;-5.20;99.90
7598;DHT22;3840;59.32098800;18.06423600;2024-01-15T07:42:49;-5.20;99.90
7598;DHT22;3840;59.32098800;18.06423600;2024-01-15T07:45:14;-5.20;99.90
7598;DHT22;3840;59.32098800;18.06423600;2024-01-15T07:47:40;-5.70;99.90
7598;DHT22;3840;59.32098800;18.06423600;2024-01-15T07:50:06;-5.20;99.90
7598;DHT22;3840;59.32098800;18.06423600;2024-01-15T07:52:32;-5.20;99.90
7598;DHT22;3840;59.32098800;18.06423600;2024-01-15T07:54:58;-5.20;99.90
7598;DHT22;3840;59.32098800;18.06423600;2024-01-15T07:57:29;-5.20;99.90
7598;DHT22;3840;59.32098800;18.06423600;2024-01-15T07:59:54;-5.20;99.90
7598;DHT22;3840;59.32098800;18.06423600;2024-01-15T08:02:20;-5.20;99.90
7598;DHT22;3840;59.32098800;18.06423600;2024-01-15T08:04:47;-5.10;99.90
7598;DHT22;3840;59.32098800;18.06423600;2024-01-15T08:07:13;-5.10;99.90
7598;DHT22;3840;59.32098800;18.06423600;2024-01-15T08:09:38;-5.10;99.90
7598;DHT22;3840;59.32098800;18.06423600;2024-01-15T08:12:04;-4.90;99.90
7598;DHT22;3840;59.32098800;18.06423600;2024-01-15T08:14:31;-5.10;99.90
7598;DHT22;3840;59.32098800;18.06423600;2024-01-15T08:16:57;-5.10;99.90
7598;DHT22;3840;59.32098800;18.06423600;2024-01-15T08:19:23;-5.10;99.90
7598;DHT22;3840;59.32098800;18.06423600;2024-01-15T08:21:49;-5.20;99.90
7598;DHT22;3840;59.32098800;18.06423600;2024-01-15T08:24:16;-5.10;99.90
7598;DHT22;3840;59.32098800;18.06423600;2024-01-15T08:26:44;-5.20;99.90
7598;DHT22;3840;59.32098800;18.06423600;2024-01-15T08:29:13;-5.20;99.90
7598;DHT22;3840;59.32098800;18.06423600;2024-01-15T08:31:40;-5.20;99.90
7598;DHT22;3840;59.32098800;18.06423600;2024-01-15T08:34:06;-5.20;99.90
7598;DHT22;3840;59.32098800;18.06423600;2024-01-15T08:36:32;-5.10;99.90
7598;DHT22;3840;59.32098800;18.06423600;2024-01-15T08:39:00;-5.20;99.90
7598;DHT22;3840;59.32098800;18.06423600;2024-01-15T08:41:25;-5.20;99.90
7598;DHT22;3840;59.32098800;18.06423600;2024-01-15T08:43:51;-5.20;99.90
7598;DHT22;3840;59.32098800;18.06423600;2024-01-15T08:46:18;-5.20;99.90
7598;DHT22;3840;59.32098800;18.06423600;2024-01-15T08:48:44;-5.20;99.90
7598;DHT22;3840;59.32098800;18.06423600;2024-01-15T08:51:10;-5.10;99.90
7598;DHT22;3840;59.32098800;18.06423600;2024-01-15T08:53:35;-5.00;99.90
7598;DHT22;3840;59.32098800;18.06423600;2024-01-15T08:56:01;-5.00;99.90
7598;DHT22;3840;59.32098800;18.06423600;2024-01-15T08:58:27;-5.00;99.90
7598;DHT22;3840;59.32098800;18.06423600;2024-01-15T09:00:53;-5.00;99.90
7598;DHT22;3840;59.32098800;18.06423600;2024-01-15T09:03:18;-5.00;99.90
7598;DHT22;3840;59.32098800;18.06423600;2024-01-15T09:05:44;-5.00;99.90
7598;DHT22;3840;59.32098800;18.06423600;2024-01-15T09:08:11;-5.10;99.90
7598;DHT22;3840;59.32098800;18.06423600;2024-01-15T09:10:37;-5.00;99.90
7598;DHT22;3840;59.32098800;18.06423600;2024-01-15T09:13:03;-5.00;99.90
7598;DHT22;3840;59.32098800;18.06423600;2024-01-15T09:15:30;-5.10;99.90
7598;DHT22;3840;59.32098800;18.06423600;2024-01-15T09:17:56;-5.00;99.90
7598;DHT22;3840;59.32098800;18.06423600;2024-01-15T09:20:24;-5.10;99.90
7598;DHT22;3840;59.32098800;18.06423600;2024-01-15T09:22:54;-5.10;99.90
7598;DHT22;3840;59.32098800;18.06423600;2024-01-15T09:25:21;-5.10;99.90
7598;DHT22;3840;59.32098800;18.06423600;2024-01-15T09:27:48;-5.10;99.90
7598;DHT22;3840;59.32098800;18.06423600;2024-01-15T09:30:13;-5.10;99.90
7598;DHT22;3840;59.32098800;18.06423600;2024-01-15T09:32:39;-5.10;99.90
7598;DHT22;3840;59.32098800;18.06423600;2024-01-15T09:35:05;-5.00;99.90
7598;DHT22;3840;59.32098800;18.06423600;2024-01-15T09:37:31;-5.10;99.90
7598;DHT22;3840;59.32098800;18.06423600;2024-01-15T09:39:57;-5.10;99.90
7598;DHT22;3840;59.32098800;18.06423600;2024-01-15T09:42:24;-5.10;99.90
7598;DHT22;3840;59.32098800;18.06423600;2024-01-15T09:44:51;-5.00;99.90
7598;DHT22;3840;59.32098800;18.06423600;2024-01-15T09:47:18;-5.00;99.90
7598;DHT22;3840;59.32098800;18.06423600;2024-01-15T09:49:44;-5.10;99.90
7598;DHT22;3840;59.32098800;18.06423600;2024-01-15T09:52:11;-5.10;99.90
7598;DHT22;3840;59.32098800;18.06423600;2024-01-15T09:54:37;-5.10;99.90
7598;DHT22;3840;59.32098800;18.06423600;2024-01-15T09:57:04;-4.80;99.90
7598;DHT22;3840;59.32098800;18.06423600;2024-01-15T09:59:32;-5.00;99.90
7598;DHT22;3840;59.32098800;18.06423600;2024-01-15T10:01:58;-5.00;99.90
7598;DHT22;3840;59.32098800;18.06423600;2024-01-15T10:04:25;-5.00;99.90
7598;DHT22;3840;59.32098800;18.06423600;2024-01-15T10:06:51;-5.00;99.90
7598;DHT22;3840;59.32098800;18.06423600;2024-01-15T10:09:17;-4.80;99.90
7598;DHT22;3840;59.32098800;18.06423600;2024-01-15T10:11:44;-4.80;99.90
7598;DHT22;3840;59.32098800;18.06423600;2024-01-15T10:14:11;-4.90;99.90
7598;DHT22;3840;59.32098800;18.06423600;2024-01-15T10:16:40;-4.90;99.90
7598;DHT22;3840;59.32098800;18.06423600;2024-01-15T10:19:07;-5.00;99.90
7598;DHT22;3840;59.32098800;18.06423600;2024-01-15T10:21:33;-5.00;99.90
7598;DHT22;3840;59.32098800;18.06423600;2024-01-15T10:24:02;-4.90;99.90
7598;DHT22;3840;59.32098800;18.06423600;2024-01-15T10:26:29;-5.00;99.90
7598;DHT22;3840;59.32098800;18.06423600;2024-01-15T10:28:55;-4.90;99.90
7598;DHT22;3840;59.32098800;18.06423600;2024-01-15T10:31:21;-4.80;99.90
7598;DHT22;3840;59.32098800;18.06423600;2024-01-15T10:33:50;-5.10;99.90
7598;DHT22;3840;59.32098800;18.06423600;2024-01-15T10:36:17;-4.90;99.90
7598;DHT22;3840;59.32098800;18.06423600;2024-01-15T10:38:44;-4.80;99.90
7598;DHT22;3840;59.32098800;18.06423600;2024-01-15T10:41:10;-4.80;99.90
7598;DHT22;3840;59.32098800;18.06423600;2024-01-15T10:43:36;-4.90;99.90
7598;DHT22;3840;59.32098800;18.06423600;2024-01-15T10:46:02;-4.90;99.90
7598;DHT22;3840;59.32098800;18.06423600;2024-01-15T10:48:28;-5.00;99.90
7598;DHT22;3840;59.32098800;18.06423600;2024-01-15T10:50:57;-4.90;99.90
7598;DHT22;3840;59.32098800;18.06423600;2024-01-15T10:53:26;-4.90;99.90
7598;DHT22;3840;59.32098800;18.06423600;2024-01-15T10:55:53;-4.80;99.90
7598;DHT22;3840;59.32098800;18.06423600;2024-01-15T10:58:20;-4.70;99.90
7598;DHT22;3840;59.32098800;18.06423600;2024-01-15T11:00:46;-4.70;99.90
7598;DHT22;3840;59.32098800;18.06423600;2024-01-15T11:03:14;-4.60;99.90
7598;DHT22;3840;59.32098800;18.06423600;2024-01-15T11:05:42;-4.80;99.90
7598;DHT22;3840;59.32098800;18.06423600;2024-01-15T11:08:11;-4.70;99.90
7598;DHT22;3840;59.32098800;18.06423600;2024-01-15T11:10:50;-4.70;99.90
7598;DHT22;3840;59.32098800;18.06423600;2024-01-15T11:16:09;-4.60;99.90
7598;DHT22;3840;59.32098800;18.06423600;2024-01-15T11:18:41;-4.70;99.90
7598;DHT22;3840;59.32098800;18.06423600;2024-01-15T11:24:01;-4.90;99.90
7598;DHT22;3840;59.32098800;18.06423600;2024-01-15T11:29:08;-4.70;99.90
7598;DHT22;3840;59.32098800;18.06423600;2024-01-15T11:34:09;-4.80;99.90
7598;DHT22;3840;59.32098800;18.06423600;2024-01-15T11:39:39;-4.90;99.90
7598;DHT22;3840;59.32098800;18.06423600;2024-01-15T11:42:04;-4.90;99.90
7598;DHT22;3840;59.32098800;18.06423600;2024-01-15T11:44:30;-4.90;99.90
7598;DHT22;3840;59.32098800;18.06423600;2024-01-15T11:47:05;-5.00;99.90
7598;DHT22;3840;59.32098800;18.06423600;2024-01-15T11:52:19;-5.00;99.90
7598;DHT22;3840;59.32098800;18.06423600;2024-01-15T11:57:33;-5.00;99.90
7598;DHT22;3840;59.32098800;18.06423600;2024-01-15T12:00:02;-5.10;99.90
7598;DHT22;3840;59.32098800;18.06423600;2024-01-15T12:02:29;-5.10;99.90
7598;DHT22;3840;59.32098800;18.06423600;2024-01-15T12:04:55;-5.10;99.90
7598;DHT22;3840;59.32098800;18.06423600;2024-01-15T12:07:22;-5.00;99.90
7598;DHT22;3840;59.32098800;18.06423600;2024-01-15T12:09:48;-4.50;99.90
7598;DHT22;3840;59.32098800;18.06423600;2024-01-15T12:12:20;-5.10;99.90
7598;DHT22;3840;59.32098800;18.06423600;2024-01-15T12:14:49;-5.00;99.90
7598;DHT22;3840;59.32098800;18.06423600;2024-01-15T12:17:16;-5.00;99.90
7598;DHT22;3840;59.32098800;18.06423600;2024-01-15T12:19:43;-5.00;99.90
7598;DHT22;3840;59.32098800;18.06423600;2024-01-15T12:22:11;-4.90;99.90
7598;DHT22;3840;59.32098800;18.06423600;2024-01-15T12:24:36;-5.10;99.90
7598;DHT22;3840;59.32098800;18.06423600;2024-01-15T12:27:03;-5.00;99.90
7598;DHT22;3840;59.32098800;18.06423600;2024-01-15T12:29:30;-5.10;99.90
7598;DHT22;3840;59.32098800;18.06423600;2024-01-15T12:31:56;-5.10;99.90
7598;DHT22;3840;59.32098800;18.06423600;2024-01-15T12:34:22;-5.10;99.90
7598;DHT22;3840;59.32098800;18.06423600;2024-01-15T12:36:49;-5.10;99.90
7598;DHT22;3840;59.32098800;18.06423600;2024-01-15T12:39:15;-5.00;99.90
7598;DHT22;3840;59.32098800;18.06423600;2024-01-15T12:41:42;-4.90;99.90
7598;DHT22;3840;59.32098800;18.06423600;2024-01-15T12:44:08;-5.00;99.90
7598;DHT22;3840;59.32098800;18.06423600;2024-01-15T12:46:34;-5.00;99.90
7598;DHT22;3840;59.32098800;18.06423600;2024-01-15T12:49:04;-5.20;99.90
7598;DHT22;3840;59.32098800;18.06423600;2024-01-15T12:51:29;-5.00;99.90
7598;DHT22;3840;59.32098800;18.06423600;2024-01-15T12:53:57;-4.90;99.90
7598;DHT22;3840;59.32098800;18.06423600;2024-01-15T12:56:22;-5.00;99.90
7598;DHT22;3840;59.32098800;18.06423600;2024-01-15T12:58:48;-5.00;99.90
7598;DHT22;3840;59.32098800;18.06423600;2024-01-15T13:01:14;-5.00;99.90
7598;DHT22;3840;59.32098800;18.06423600;2024-01-15T13:03:39;-5.10;99.90
7598;DHT22;3840;59.32098800;18.06423600;2024-01-15T13:06:05;-5.10;99.90
7598;DHT22;3840;59.32098800;18.06423600;2024-01-15T13:08:31;-5.20;99.90
7598;DHT22;3840;59.32098800;18.06423600;2024-01-15T13:10:57;-5.10;99.90
7598;DHT22;3840;59.32098800;18.06423600;2024-01-15T13:13:23;-5.00;99.90
7598;DHT22;3840;59.32098800;18.06423600;2024-01-15T13:15:51;-5.10;99.90
7598;DHT22;3840;59.32098800;18.06423600;2024-01-15T13:18:17;-5.10;99.90
7598;DHT22;3840;59.32098800;18.06423600;2024-01-15T13:20:44;-5.10;99.90
7598;DHT22;3840;59.32098800;18.06423600;2024-01-15T13:23:11;-5.10;99.90
7598;DHT22;3840;59.32098800;18.06423600;2024-01-15T13:25:37;-5.10;99.90
7598;DHT22;3840;59.32098800;18.06423600;2024-01-15T13:28:04;-5.10;99.90
7598;DHT22;3840;59.32098800;18.06423600;2024-01-15T13:30:30;-5.10;99.90
7598;DHT22;3840;59.32098800;18.06423600;2024-01-15T13:32:57;-5.10;99.90
7598;DHT22;3840;59.32098800;18.06423600;2024-01-15T13:35:23;-5.10;99.90
7598;DHT22;3840;59.32098800;18.06423600;2024-01-15T13:37:49;-5.10;99.90
7598;DHT22;3840;59.32098800;18.06423600;2024-01-15T13:40:15;-5.20;99.90
7598;DHT22;3840;59.32098800;18.06423600;2024-01-15T13:42:46;-5.30;99.90
7598;DHT22;3840;59.32098800;18.06423600;2024-01-15T13:45:13;-5.20;99.90
7598;DHT22;3840;59.32098800;18.06423600;2024-01-15T13:47:41;-5.30;99.90
7598;DHT22;3840;59.32098800;18.06423600;2024-01-15T13:50:09;-5.30;99.90